Time;durP1;ratioP1;P1;durP2;ratioP2;P2;SDS_P1;SDS_P2;PMS_P1;PMS_P2;Temp;Humidity;BMP_temperature;BMP_pressure;BME280_temperature;BME280_humidity;BME280_pressure;Samples;Min_cycle;Max_cycle;Signal;HPM_P1;HPM_P2
2021/09/29 00:00:02;;;;;;;;;;;;;;;21.26;55.68;102789.38;2067001;28;843;-69
2021/09/29 00:01:02;;;;;;;;;;;;;;;21.28;56.06;102784.88;2066806;28;1028;-68
2021/09/29 00:02:02;;;;;;;;;;;;;;;21.22;56.53;102779.53;2066942;28;971;-68
2021/09/29 00:03:03;;;;;;;;;;;;;;;21.23;55.62;102786.72;2066826;28;994;-68
2021/09/29 00:04:03;;;;;;;;;;;;;;;21.27;55.33;102780.41;2058012;28;1246;-68
2021/09/29 00:05:03;;;;;;;;;;;;;;;21.24;55.77;102783.13;2058201;28;1037;-69
2021/09/29 00:06:04;;;;;;;;;;;;;;;;;;2066858;28;1052;-68
2021/09/29 00:07:04;;;;;;;;;;;;;;;21.19;55.91;102775.06;2066650;28;955;-69
2021/09/29 00:08:05;;;;;;;;;;;;;;;21.17;56.41;102777.78;2066767;28;1293;-68
2021/09/29 00:09:05;;;;;;;;;;;;;;;21.18;56.30;102778.66;2066716;28;1964;-69
2021/09/29 00:10:06;;;;;;;;;;;;;;;21.19;56.05;102780.47;2066709;28;1370;-68
2021/09/29 00:11:06;;;;;;;;;;;;;;;21.15;55.64;102774.22;2066730;28;1198;-67
2021/09/29 00:12:06;;;;;;;;;;;;;;;21.13;56.25;102777.78;2066986;28;942;-68
2021/09/29 00:13:06;;;;;;;;;;;;;;;21.14;56.85;102775.09;2066752;28;978;-68
2021/09/29 00:14:07;;;;;;;;;;;;;;;21.12;56.90;102782.31;2066821;28;843;-69
2021/09/29 00:15:13;;;;;;;;;;;;;;;21.12;56.11;102779.59;2066256;28;969;-68
2021/09/29 00:16:14;;;;;;;;;;;;;;;21.11;56.27;102775.13;2066903;28;824;-68
2021/09/29 00:17:14;;;;;;;;;;;;;;;21.10;56.59;102775.13;2066817;28;1076;-68
2021/09/29 00:18:14;;;;;;;;;;;;;;;21.12;56.69;102776.00;2066837;28;856;-68
2021/09/29 00:19:14;;;;;;;;;;;;;;;21.13;56.32;102770.63;2066694;28;875;-70
2021/09/29 00:20:15;;;;;;;;;;;;;;;21.14;56.49;102771.50;2066811;28;966;-68
2021/09/29 00:21:15;;;;;;;;;;;;;;;21.13;56.74;102776.00;2066679;28;1001;-69
2021/09/29 00:22:15;;;;;;;;;;;;;;;21.13;55.90;102767.00;2066761;28;823;-68
2021/09/29 00:23:16;;;;;;;;;;;;;;;21.19;56.15;102769.69;2066567;28;1480;-68
2021/09/29 00:24:16;;;;;;;;;;;;;;;21.14;56.89;102772.41;2066777;28;843;-69
2021/09/29 00:25:16;;;;;;;;;;;;;;;21.14;56.27;102769.72;2066582;28;885;-68
2021/09/29 00:26:16;;;;;;;;;;;;;;;21.15;56.54;102768.81;2066768;28;859;-69
2021/09/29 00:27:16;;;;;;;;;;;;;;;21.10;56.43;102770.63;2066691;28;848;-68
2021/09/29 00:28:17;;;;;;;;;;;;;;;21.14;56.56;102772.41;2066494;28;1894;-68
2021/09/29 00:29:17;;;;;;;;;;;;;;;21.13;55.50;102769.72;2066687;28;986;-68
2021/09/29 00:30:17;;;;;;;;;;;;;;;21.13;55.77;102767.94;2066723;28;843;-68
2021/09/29 00:32:47;;;;;;;;;;;;;;;21.14;56.58;102766.09;2057621;28;1184;-68
2021/09/29 00:33:50;;;;;;;;;;;;;;;21.13;55.95;102764.31;2057772;28;832;-68
2021/09/29 00:34:50;;;;;;;;;;;;;;;21.15;55.97;102768.81;2057714;28;1062;-69
2021/09/29 00:35:50;;;;;;;;;;;;;;;21.13;55.74;102765.22;2057924;28;1044;-68
2021/09/29 00:36:51;;;;;;;;;;;;;;;21.15;55.85;102768.81;2057759;28;836;-68
2021/09/29 00:37:51;;;;;;;;;;;;;;;21.11;56.44;102768.81;2057825;28;904;-68
2021/09/29 00:38:52;;;;;;;;;;;;;;;21.18;55.55;102762.50;2057511;28;1091;-68
2021/09/29 00:39:52;;;;;;;;;;;;;;;21.13;55.95;102765.22;2057706;28;776;-68
2021/09/29 00:40:52;;;;;;;;;;;;;;;21.15;55.93;102766.13;2057809;28;963;-67
2021/09/29 00:41:52;;;;;;;;;;;;;;;21.15;56.47;102768.81;2057916;28;860;-68
2021/09/29 00:42:52;;;;;;;;;;;;;;;21.18;56.26;102765.19;2057615;28;866;-67
2021/09/29 00:43:53;;;;;;;;;;;;;;;21.18;55.85;102765.19;2057918;28;891;-67
2021/09/29 00:44:53;;;;;;;;;;;;;;;21.17;56.00;102761.63;2051154;28;773;-68
2021/09/29 00:45:53;;;;;;;;;;;;;;;21.13;56.73;102759.84;2051445;29;864;-68
2021/09/29 00:46:53;;;;;;;;;;;;;;;21.18;55.76;102763.41;2058981;28;747;-68
2021/09/29 00:47:54;;;;;;;;;;;;;;;21.14;56.39;102760.72;2059348;28;922;-68
2021/09/29 00:48:54;;;;;;;;;;;;;;;21.17;55.96;102766.09;2059217;28;1959;-69
2021/09/29 00:49:54;;;;;;;;;;;;;;;21.20;55.77;102759.81;2058869;28;994;-68
2021/09/29 00:50:54;;;;;;;;;;;;;;;21.18;55.72;102759.81;2059242;28;939;-68
2021/09/29 00:51:55;;;;;;;;;;;;;;;21.17;55.69;102756.22;2059334;28;780;-68
2021/09/29 00:52:57;;;;;;;;;;;;;;;21.18;56.13;102751.72;2059229;28;946;-68
2021/09/29 00:53:58;;;;;;;;;;;;;;;21.16;56.22;102757.13;2059305;28;891;-68
2021/09/29 00:54:58;;;;;;;;;;;;;;;21.17;56.25;102756.22;2058966;28;1127;-68
2021/09/29 00:55:58;;;;;;;;;;;;;;;21.18;55.64;102758.03;2059298;28;1233;-69
2021/09/29 00:56:58;;;;;;;;;;;;;;;21.15;56.70;102763.44;2059180;28;925;-68
2021/09/29 00:57:58;;;;;;;;;;;;;;;21.17;55.79;102753.53;2058932;28;1049;-68
2021/09/29 00:58:59;;;;;;;;;;;;;;;21.17;56.14;102758.00;2059233;28;846;-68
2021/09/29 00:59:59;;;;;;;;;;;;;;;21.17;55.79;102756.22;2059281;28;1089;-68
2021/09/29 01:00:59;;;;;;;;;;;;;;;21.17;55.81;102758.00;2059103;28;1030;-69
2021/09/29 01:01:59;;;;;;;;;;;;;;;21.15;56.40;102755.34;2059245;28;831;-68
2021/09/29 01:03:00;;;;;;;;;;;;;;;21.17;56.27;102761.63;2059062;28;1087;-68
2021/09/29 01:04:01;;;;;;;;;;;;;;;21.15;56.69;102759.81;2059167;28;809;-68
2021/09/29 01:05:02;;;;;;;;;;;;;;;21.13;56.52;102753.53;2059115;28;1353;-68
2021/09/29 01:06:05;;;;;;;;;;;;;;;21.17;56.32;102752.63;2058982;28;1045;-68
2021/09/29 01:07:21;;;;;;;;;;;;;;;21.13;55.89;102757.16;2059076;28;1065;-68
2021/09/29 01:08:29;;;;;;;;;;;;;;;21.13;56.43;102754.44;2059082;28;1910;-68
2021/09/29 01:09:51;;;;;;;;;;;;;;;21.15;56.09;102762.50;2059878;28;1061;-68
2021/09/29 01:11:12;;;;;;;;;;;;;;;21.15;56.33;102758.03;2068081;28;1038;-68
2021/09/29 01:12:15;;;;;;;;;;;;;;;21.14;56.20;102755.34;2068085;28;1041;-67
2021/09/29 01:13:15;;;;;;;;;;;;;;;21.17;55.58;102749.94;2068280;28;792;-68
2021/09/29 01:14:20;;;;;;;;;;;;;;;21.19;56.37;102750.81;2068135;28;804;-69
2021/09/29 01:15:24;;;;;;;;;;;;;;;21.18;56.24;102749.03;2067737;28;965;-68
2021/09/29 01:16:24;;;;;;;;;;;;;;;;;;2067911;28;1002;-68
2021/09/29 01:17:24;;;;;;;;;;;;;;;21.18;55.65;102749.03;2068099;28;796;-68
2021/09/29 01:18:25;;;;;;;;;;;;;;;21.17;56.22;102753.53;2067930;28;1245;-69
2021/09/29 01:19:44;;;;;;;;;;;;;;;21.16;56.25;102749.03;2067938;28;792;-68
2021/09/29 01:20:52;;;;;;;;;;;;;;;21.15;55.46;102752.66;2067944;28;915;-68
2021/09/29 01:21:57;;;;;;;;;;;;;;;21.18;55.72;102738.25;2068057;28;879;-68
2021/09/29 01:23:11;;;;;;;;;;;;;;;21.14;55.33;102745.47;2067817;28;807;-68
2021/09/29 01:24:17;;;;;;;;;;;;;;;21.19;55.50;102745.41;2067969;28;1212;-69
2021/09/29 01:25:21;;;;;;;;;;;;;;;21.22;55.35;102747.19;2067895;28;990;-68
2021/09/29 01:26:25;;;;;;;;;;;;;;;21.17;55.27;102745.44;2067718;28;1958;-68
2021/09/29 01:27:26;;;;;;;;;;;;;;;21.16;56.23;102753.53;2067939;28;812;-68
2021/09/29 01:28:28;;;;;;;;;;;;;;;21.16;56.04;102751.75;2067743;28;1957;-68
2021/09/29 01:29:29;;;;;;;;;;;;;;;21.18;55.36;102735.53;2067682;28;1002;-68
2021/09/29 01:30:31;;;;;;;;;;;;;;;21.17;55.96;102734.66;2067872;28;796;-68
2021/09/29 01:31:32;;;;;;;;;;;;;;;21.17;55.85;102744.53;2067791;28;907;-69
2021/09/29 01:32:33;;;;;;;;;;;;;;;21.17;55.63;102741.84;2067763;28;781;-68
2021/09/29 01:33:35;;;;;;;;;;;;;;;21.15;55.52;102741.88;2067893;28;1025;-68
2021/09/29 01:34:35;;;;;;;;;;;;;;;21.17;55.19;102740.06;2067841;28;914;-68
2021/09/29 01:35:36;;;;;;;;;;;;;;;21.17;55.30;102737.38;2067881;28;833;-68
2021/09/29 01:36:37;;;;;;;;;;;;;;;21.15;56.35;102738.25;2067854;28;836;-68
2021/09/29 01:37:37;;;;;;;;;;;;;;;21.15;56.31;102744.56;2067734;28;784;-68
2021/09/29 01:38:40;;;;;;;;;;;;;;;21.15;55.90;102741.88;2067724;28;855;-69
2021/09/29 01:39:40;;;;;;;;;;;;;;;21.16;55.80;102738.25;2067869;28;1049;-68
2021/09/29 01:40:40;;;;;;;;;;;;;;;21.18;55.25;102740.94;2067757;28;970;-68
2021/09/29 01:41:41;;;;;;;;;;;;;;;21.14;56.74;102740.06;2067843;28;924;-68
2021/09/29 01:42:41;;;;;;;;;;;;;;;21.13;56.19;102734.69;2067679;28;1046;-68
2021/09/29 01:43:41;;;;;;;;;;;;;;;21.13;55.90;102742.75;2067823;28;828;-68
2021/09/29 01:44:41;;;;;;;;;;;;;;;21.14;56.43;102739.16;2067988;28;855;-67
2021/09/29 01:45:45;;;;;;;;;;;;;;;21.12;56.25;102741.88;2067840;28;978;-69
2021/09/29 01:46:45;;;;;;;;;;;;;;;21.12;55.89;102741.88;2067739;28;985;-68
2021/09/29 01:47:46;;;;;;;;;;;;;;;21.15;56.31;102740.94;2067858;28;1037;-68
2021/09/29 01:48:50;;;;;;;;;;;;;;;21.16;56.30;102740.06;2067558;28;1882;-68
2021/09/29 01:49:52;;;;;;;;;;;;;;;21.13;55.74;102731.97;2067756;28;974;-67
2021/09/29 01:50:55;;;;;;;;;;;;;;;21.11;56.24;102740.09;2067613;28;796;-69
2021/09/29 01:51:56;;;;;;;;;;;;;;;21.15;56.10;102732.88;2067574;28;1077;-68
2021/09/29 01:52:58;;;;;;;;;;;;;;;21.13;56.43;102737.38;2067724;28;828;-68
2021/09/29 01:53:59;;;;;;;;;;;;;;;21.12;55.89;102736.50;2067545;28;1190;-68
2021/09/29 01:55:00;;;;;;;;;;;;;;;21.11;55.89;102734.69;2067342;28;1056;-67
2021/09/29 01:56:00;;;;;;;;;;;;;;;21.13;56.32;102729.28;2067692;28;907;-68
2021/09/29 01:57:00;;;;;;;;;;;;;;;21.12;55.66;102735.59;2067632;28;793;-68
2021/09/29 01:58:01;;;;;;;;;;;;;;;21.12;56.60;102732.88;2067741;28;800;-69
2021/09/29 01:59:02;;;;;;;;;;;;;;;21.14;55.79;102729.28;2067758;28;1077;-68
2021/09/29 02:00:04;;;;;;;;;;;;;;;21.14;55.58;102729.28;2067309;28;1706;-68
2021/09/29 02:01:04;;;;;;;;;;;;;;;21.16;55.73;102731.97;2067673;28;1112;-68
2021/09/29 02:02:04;;;;;;;;;;;;;;;21.13;56.28;102730.19;2067761;28;1325;-68
2021/09/29 02:03:04;;;;;;;;;;;;;;;21.12;55.66;102727.50;2067632;28;918;-69
2021/09/29 02:04:05;;;;;;;;;;;;;;;21.11;56.08;102725.69;2059020;28;1323;-68
2021/09/29 02:05:06;;;;;;;;;;;;;;;21.12;55.96;102720.31;2058929;28;957;-68
2021/09/29 02:06:06;;;;;;;;;;;;;;;21.11;56.05;102723.91;2067454;28;1154;-68
2021/09/29 02:07:06;;;;;;;;;;;;;;;21.07;55.82;102727.53;2067565;28;776;-67
2021/09/29 02:08:07;;;;;;;;;;;;;;;21.08;55.79;102723.03;2067627;28;1207;-68
2021/09/29 02:09:07;;;;;;;;;;;;;;;21.11;56.01;102720.31;2067475;28;1972;-68
2021/09/29 02:10:08;;;;;;;;;;;;;;;21.13;55.99;102723.91;2067624;28;863;-68
2021/09/29 02:11:08;;;;;;;;;;;;;;;21.12;56.51;102723.03;2067474;28;812;-68
2021/09/29 02:12:09;;;;;;;;;;;;;;;21.08;56.97;102726.63;2067638;28;867;-68
2021/09/29 02:13:09;;;;;;;;;;;;;;;21.05;56.07;102721.25;2067400;28;843;-68
2021/09/29 02:14:09;;;;;;;;;;;;;;;21.03;56.10;102723.94;2067462;28;864;-67
2021/09/29 02:15:10;;;;;;;;;;;;;;;21.07;56.46;102726.63;2067519;28;1002;-68
2021/09/29 02:16:10;;;;;;;;;;;;;;;21.07;56.38;102724.84;2067615;28;997;-68
2021/09/29 02:17:10;;;;;;;;;;;;;;;21.11;56.71;102725.69;2067531;28;1172;-69
2021/09/29 02:18:10;;;;;;;;;;;;;;;21.07;56.54;102727.53;2067567;28;820;-68
2021/09/29 02:19:10;;;;;;;;;;;;;;;21.04;55.87;102727.56;2067510;28;777;-69
2021/09/29 02:20:11;;;;;;;;;;;;;;;21.02;56.82;102722.16;2067568;28;978;-68
2021/09/29 02:21:11;;;;;;;;;;;;;;;21.03;56.50;102725.75;2067448;28;824;-68
2021/09/29 02:22:14;;;;;;;;;;;;;;;21.05;56.88;102725.72;2067581;28;982;-68
2021/09/29 02:23:14;;;;;;;;;;;;;;;21.01;56.20;102722.19;2067471;28;1046;-67
2021/09/29 02:24:14;;;;;;;;;;;;;;;21.03;56.33;102720.38;2075332;28;1155;-69
2021/09/29 02:25:14;;;;;;;;;;;;;;;21.01;56.95;102717.66;2075553;28;1002;-68
2021/09/29 02:26:14;;;;;;;;;;;;;;;21.01;57.20;102720.38;2075593;28;889;-68
2021/09/29 02:27:15;;;;;;;;;;;;;;;21.03;56.34;102714.97;2066819;28;1225;-68
2021/09/29 02:28:15;;;;;;;;;;;;;;;21.01;57.33;102716.78;2066931;28;768;-67
2021/09/29 02:29:15;;;;;;;;;;;;;;;21.03;57.20;102714.97;2075040;28;1886;-68
2021/09/29 02:30:16;;;;;;;;;;;;;;;20.98;57.38;102708.72;2075602;28;819;-68
2021/09/29 02:31:16;;;;;;;;;;;;;;;20.99;56.75;102714.09;2075542;28;876;-69
2021/09/29 02:32:16;;;;;;;;;;;;;;;21.01;56.16;102714.09;2075638;28;1258;-68
2021/09/29 02:33:16;;;;;;;;;;;;;;;21.01;56.72;102711.41;2075527;28;784;-67
2021/09/29 02:34:17;;;;;;;;;;;;;;;21.01;56.81;102708.72;2075470;28;860;-68
2021/09/29 02:35:17;;;;;;;;;;;;;;;20.99;57.44;102711.38;2075454;28;993;-68
2021/09/29 02:36:17;;;;;;;;;;;;;;;20.97;57.15;102709.63;2075555;28;982;-69
2021/09/29 02:37:17;;;;;;;;;;;;;;;21.00;57.12;102709.59;2075092;28;895;-68
2021/09/29 02:38:17;;;;;;;;;;;;;;;20.98;57.55;102708.72;2075561;28;901;-69
2021/09/29 02:39:18;;;;;;;;;;;;;;;20.98;56.53;102712.28;2075484;28;855;-68
2021/09/29 02:40:18;;;;;;;;;;;;;;;20.93;57.88;102707.84;2075288;28;851;-68
2021/09/29 02:41:19;;;;;;;;;;;;;;;20.96;57.32;102686.28;2075421;28;927;-68
2021/09/29 02:42:19;;;;;;;;;;;;;;;20.99;56.48;102702.44;2075234;28;1240;-67
2021/09/29 02:43:20;;;;;;;;;;;;;;;20.95;56.77;102696.16;2075435;28;1103;-69
2021/09/29 02:44:20;;;;;;;;;;;;;;;20.97;56.84;102699.72;2075551;28;852;-67
2021/09/29 02:45:20;;;;;;;;;;;;;;;21.00;56.82;102691.63;2075473;28;1045;-67
2021/09/29 02:46:20;;;;;;;;;;;;;;;20.95;56.88;102692.56;2075590;28;809;-67
2021/09/29 02:47:20;;;;;;;;;;;;;;;20.96;56.92;102697.06;2075340;28;776;-67
2021/09/29 02:48:21;;;;;;;;;;;;;;;21.02;56.31;102686.25;2075345;28;1898;-68
2021/09/29 02:49:21;;;;;;;;;;;;;;;21.00;56.56;102702.41;2075432;28;828;-68
2021/09/29 02:50:21;;;;;;;;;;;;;;;21.00;56.86;102693.44;2075309;28;879;-69
2021/09/29 02:51:21;;;;;;;;;;;;;;;21.01;56.53;102650.31;2066617;28;1327;-68
2021/09/29 02:52:22;;;;;;;;;;;;;;;21.01;57.32;102641.34;2066778;28;998;-68
2021/09/29 02:53:22;;;;;;;;;;;;;;;21.00;57.00;102640.44;2075010;28;804;-68
2021/09/29 02:54:22;;;;;;;;;;;;;;;21.00;57.20;102640.44;2075260;28;1136;-66
2021/09/29 02:55:22;;;;;;;;;;;;;;;21.02;56.57;102640.44;2075351;28;862;-68
2021/09/29 02:56:23;;;;;;;;;;;;;;;21.00;57.53;102642.25;2075380;28;998;-68
2021/09/29 02:57:23;;;;;;;;;;;;;;;21.00;56.78;102626.97;2075278;28;875;-69
2021/09/29 02:58:24;;;;;;;;;;;;;;;21.03;56.22;102636.84;2075192;28;1026;-68
2021/09/29 02:59:24;;;;;;;;;;;;;;;21.01;56.41;102717.66;2075242;28;1057;-69
2021/09/29 03:00:24;;;;;;;;;;;;;;;20.98;56.64;102698.81;2075333;28;816;-68
2021/09/29 03:01:24;;;;;;;;;;;;;;;20.97;57.28;102698.84;2075021;28;1029;-67
2021/09/29 03:02:24;;;;;;;;;;;;;;;20.98;57.16;102681.78;2075339;28;994;-68
2021/09/29 03:03:25;;;;;;;;;;;;;;;20.98;57.15;102677.28;2075263;28;1037;-67
2021/09/29 03:04:25;;;;;;;;;;;;;;;21.00;56.75;102677.28;2075186;28;981;-68
2021/09/29 03:05:25;;;;;;;;;;;;;;;21.02;56.98;102678.16;2075198;28;756;-67
2021/09/29 03:06:25;;;;;;;;;;;;;;;20.99;57.23;102672.78;2075253;28;982;-67
2021/09/29 03:07:25;;;;;;;;;;;;;;;21.00;56.37;102677.28;2074658;28;763;-67
2021/09/29 03:08:26;;;;;;;;;;;;;;;21.03;56.57;102675.44;2075191;28;1910;-67
2021/09/29 03:09:26;;;;;;;;;;;;;;;21.00;57.03;102670.06;2066489;28;966;-67
2021/09/29 03:10:26;;;;;;;;;;;;;;;21.03;56.86;102678.13;2066431;28;800;-66
2021/09/29 03:11:26;;;;;;;;;;;;;;;21.03;56.57;102670.06;2075079;28;859;-66
2021/09/29 03:12:26;;;;;;;;;;;;;;;21.07;56.18;102660.16;2075205;28;1041;-65
2021/09/29 03:13:27;;;;;;;;;;;;;;;21.07;56.84;102653.88;2075117;28;915;-66
2021/09/29 03:14:27;;;;;;;;;;;;;;;21.08;56.74;102652.97;2075196;28;930;-65
2021/09/29 03:15:27;;;;;;;;;;;;;;;21.10;56.06;102657.47;2075260;28;771;-65
2021/09/29 03:16:27;;;;;;;;;;;;;;;21.12;56.88;102650.25;2075210;28;797;-64
2021/09/29 03:17:27;;;;;;;;;;;;;;;21.13;56.78;102652.03;2075131;28;775;-64
2021/09/29 03:18:28;;;;;;;;;;;;;;;21.17;56.49;102647.50;2075319;28;978;-65
2021/09/29 03:19:28;;;;;;;;;;;;;;;21.14;56.40;102652.94;2075189;28;1029;-64
2021/09/29 03:20:29;;;;;;;;;;;;;;;21.14;55.80;102653.84;2075295;28;831;-66
2021/09/29 03:21:30;;;;;;;;;;;;;;;21.17;55.71;102652.91;2074980;28;875;-65
2021/09/29 03:22:32;;;;;;;;;;;;;;;21.16;55.99;102643.94;2075163;28;772;-68
2021/09/29 03:23:32;;;;;;;;;;;;;;;21.13;56.22;102646.66;2072879;28;1182;-69
2021/09/29 03:24:32;;;;;;;;;;;;;;;21.12;55.81;102641.25;2066773;28;824;-67
2021/09/29 03:25:32;;;;;;;;;;;;;;;21.09;56.21;102639.50;2067155;28;778;-67
2021/09/29 03:26:33;;;;;;;;;;;;;;;21.10;56.18;102648.47;2067051;28;1045;-67
2021/09/29 03:27:33;;;;;;;;;;;;;;;21.09;57.22;102647.59;2067119;28;798;-67
2021/09/29 03:28:34;;;;;;;;;;;;;;;21.12;56.30;102646.66;2066917;28;1890;-67
2021/09/29 03:29:34;;;;;;;;;;;;;;;21.10;56.39;102643.06;2066854;28;1632;-67
2021/09/29 03:30:35;;;;;;;;;;;;;;;21.10;56.35;102648.47;2066902;28;875;-67
2021/09/29 03:31:35;;;;;;;;;;;;;;;21.09;56.38;102647.59;2058369;28;1264;-68
2021/09/29 03:32:35;;;;;;;;;;;;;;;21.06;56.18;102647.59;2058411;28;975;-68
2021/09/29 03:33:35;;;;;;;;;;;;;;;21.07;56.77;102646.69;2066995;28;848;-67
2021/09/29 03:34:35;;;;;;;;;;;;;;;21.08;57.10;102655.66;2066804;28;995;-68
2021/09/29 03:35:36;;;;;;;;;;;;;;;21.08;56.68;102645.78;2067043;28;902;-68
2021/09/29 03:36:36;;;;;;;;;;;;;;;21.07;56.32;102652.09;2067060;28;787;-68
2021/09/29 03:37:36;;;;;;;;;;;;;;;21.05;56.19;102645.81;2066935;28;863;-68
2021/09/29 03:38:37;;;;;;;;;;;;;;;21.05;56.36;102647.59;2066816;28;785;-67
2021/09/29 03:39:37;;;;;;;;;;;;;;;21.05;56.41;102644.91;2066961;28;868;-69
2021/09/29 03:40:37;;;;;;;;;;;;;;;21.03;56.79;102639.53;2066681;28;974;-68
2021/09/29 03:41:37;;;;;;;;;;;;;;;21.04;56.80;102633.25;2067054;28;990;-67
2021/09/29 03:42:37;;;;;;;;;;;;;;;21.01;56.96;102636.84;2066304;28;730;-68
2021/09/29 03:43:38;;;;;;;;;;;;;;;20.99;56.78;102637.78;2066434;28;1013;-68
2021/09/29 03:44:38;;;;;;;;;;;;;;;20.98;56.63;102639.56;2066848;28;973;-68
2021/09/29 03:45:38;;;;;;;;;;;;;;;20.98;57.31;102626.09;2066952;28;830;-69
2021/09/29 03:46:38;;;;;;;;;;;;;;;21.01;57.63;102636.84;2066863;28;986;-69
2021/09/29 03:47:43;;;;;;;;;;;;;;;21.00;57.25;102629.66;2066946;28;753;-68
2021/09/29 03:48:44;;;;;;;;;;;;;;;20.99;57.34;102622.47;2066772;28;1886;-68
2021/09/29 03:49:44;;;;;;;;;;;;;;;21.01;56.67;102625.19;2066897;28;835;-68
2021/09/29 03:50:44;;;;;;;;;;;;;;;21.02;57.33;102626.97;2066930;28;791;-66
2021/09/29 03:51:44;;;;;;;;;;;;;;;20.98;57.30;102633.28;2066929;28;1024;-68
2021/09/29 03:52:44;;;;;;;;;;;;;;;20.99;57.01;102638.66;2066877;28;815;-68
2021/09/29 03:53:45;;;;;;;;;;;;;;;20.99;57.49;102630.56;2066731;28;981;-69
2021/09/29 03:54:45;;;;;;;;;;;;;;;20.97;57.32;102634.19;2066800;28;1319;-68
2021/09/29 03:55:45;;;;;;;;;;;;;;;20.98;56.67;102628.78;2066811;28;1081;-69
2021/09/29 03:56:45;;;;;;;;;;;;;;;20.96;56.88;102630.59;2066869;28;792;-68
2021/09/29 03:57:45;;;;;;;;;;;;;;;20.97;57.00;102620.72;2066904;28;966;-69
2021/09/29 03:58:46;;;;;;;;;;;;;;;20.97;56.85;102623.41;2066586;28;776;-68
2021/09/29 03:59:46;;;;;;;;;;;;;;;20.98;56.69;102630.59;2066817;28;820;-68
2021/09/29 04:00:46;;;;;;;;;;;;;;;20.97;57.02;102626.09;2066822;28;815;-69
2021/09/29 04:01:46;;;;;;;;;;;;;;;21.00;56.88;102620.69;2066777;28;776;-68
2021/09/29 04:02:46;;;;;;;;;;;;;;;20.99;56.85;102617.09;2066882;28;1029;-69
2021/09/29 04:03:46;;;;;;;;;;;;;;;21.61;55.21;102624.66;2066894;28;1233;-68
2021/09/29 04:04:47;;;;;;;;;;;;;;;21.85;54.92;102613.66;2066447;28;997;-68
2021/09/29 04:05:48;;;;;;;;;;;;;;;21.90;54.50;102617.22;2066880;28;1017;-68
2021/09/29 04:06:48;;;;;;;;;;;;;;;21.98;53.85;102609.06;2066933;28;871;-68
2021/09/29 04:07:48;;;;;;;;;;;;;;;22.06;54.33;102604.47;2066875;28;777;-69
2021/09/29 04:08:48;;;;;;;;;;;;;;;22.12;53.94;102616.97;2066662;28;1902;-68
2021/09/29 04:09:48;;;;;;;;;;;;;;;22.18;53.20;102616.91;2066773;28;765;-69
2021/09/29 04:10:49;;;;;;;;;;;;;;;22.28;53.09;102614.97;2066768;28;1025;-68
2021/09/29 04:11:49;;;;;;;;;;;;;;;22.29;53.30;102614.97;2066927;28;1271;-69
2021/09/29 04:12:49;;;;;;;;;;;;;;;22.29;53.74;102612.28;2066495;28;998;-68
2021/09/29 04:13:49;;;;;;;;;;;;;;;22.38;52.64;102613.03;2066877;28;824;-68
2021/09/29 04:14:50;;;;;;;;;;;;;;;22.39;52.79;102618.44;2066823;28;860;-68
2021/09/29 04:15:51;;;;;;;;;;;;;;;22.40;52.25;102619.31;2066705;28;993;-68
2021/09/29 04:16:51;;;;;;;;;;;;;;;22.43;52.66;102625.59;2066834;28;1011;-70
2021/09/29 04:17:51;;;;;;;;;;;;;;;22.45;52.75;102617.47;2066845;28;1010;-69
2021/09/29 04:18:51;;;;;;;;;;;;;;;22.49;52.54;102621.94;2066786;28;1442;-69
2021/09/29 04:19:52;;;;;;;;;;;;;;;22.48;52.55;102621.03;2068339;28;932;-69
2021/09/29 04:20:52;;;;;;;;;;;;;;;22.48;52.79;102620.13;2068300;28;761;-69
2021/09/29 04:21:52;;;;;;;;;;;;;;;22.51;52.91;102620.09;2068528;28;782;-69
2021/09/29 04:22:53;;;;;;;;;;;;;;;22.56;52.75;102630.84;2068409;28;1299;-69
2021/09/29 04:23:54;;;;;;;;;;;;;;;22.52;53.06;102619.19;2068201;28;1198;-68
2021/09/29 04:24:55;;;;;;;;;;;;;;;22.49;52.14;102622.84;2068436;28;1088;-69
2021/09/29 04:25:55;;;;;;;;;;;;;;;22.57;51.83;102625.41;2068473;28;875;-69
2021/09/29 04:26:56;;;;;;;;;;;;;;;22.55;52.17;102623.66;2068134;28;856;-69
2021/09/29 04:27:56;;;;;;;;;;;;;;;22.56;52.49;102625.47;2068387;28;994;-69
2021/09/29 04:28:56;;;;;;;;;;;;;;;22.56;52.31;102626.34;2068348;28;1914;-69
2021/09/29 04:29:56;;;;;;;;;;;;;;;22.56;51.39;102630.84;2068453;28;1421;-68
2021/09/29 04:30:56;;;;;;;;;;;;;;;22.58;52.51;102638.00;2067806;28;959;-69
2021/09/29 04:31:56;;;;;;;;;;;;;;;22.57;52.40;102628.13;2067882;28;847;-68
2021/09/29 04:32:59;;;;;;;;;;;;;;;22.59;51.88;102634.41;2068288;28;1048;-69
2021/09/29 04:33:59;;;;;;;;;;;;;;;22.59;52.85;102634.41;2068322;28;1575;-69
2021/09/29 04:34:59;;;;;;;;;;;;;;;22.59;52.47;102630.81;2068014;28;1330;-68
2021/09/29 04:36:00;;;;;;;;;;;;;;;22.61;51.72;102637.09;2068352;28;791;-69
2021/09/29 04:37:00;;;;;;;;;;;;;;;22.59;52.83;102631.69;2068304;28;816;-68
2021/09/29 04:38:00;;;;;;;;;;;;;;;22.61;52.21;102631.69;2068148;28;979;-70
2021/09/29 04:39:00;;;;;;;;;;;;;;;22.65;51.74;102626.22;2068123;28;848;-69
2021/09/29 04:40:00;;;;;;;;;;;;;;;22.64;51.86;102629.81;2068374;28;792;-69
2021/09/29 04:41:01;;;;;;;;;;;;;;;22.62;52.36;102633.47;2068231;28;891;-69
2021/09/29 04:42:01;;;;;;;;;;;;;;;22.63;52.36;102632.56;2068325;28;835;-69
2021/09/29 04:43:01;;;;;;;;;;;;;;;22.66;51.99;102627.13;2068200;28;1392;-69
2021/09/29 04:44:01;;;;;;;;;;;;;;;22.68;52.31;102627.09;2068340;28;844;-68
2021/09/29 04:45:01;;;;;;;;;;;;;;;22.67;52.52;102628.88;2068165;28;860;-70
2021/09/29 04:46:02;;;;;;;;;;;;;;;22.67;52.27;102622.59;2068234;28;1100;-68
2021/09/29 04:47:02;;;;;;;;;;;;;;;22.70;52.38;102630.66;2068261;28;796;-67
2021/09/29 04:48:03;;;;;;;;;;;;;;;22.71;51.91;102621.63;2068350;28;1405;-69
2021/09/29 04:49:03;;;;;;;;;;;;;;;22.70;51.67;102626.13;2068082;28;1902;-69
2021/09/29 04:50:04;;;;;;;;;;;;;;;22.74;52.10;102627.88;2068377;28;705;-68
2021/09/29 04:51:05;;;;;;;;;;;;;;;22.71;52.61;102627.91;2068274;28;772;-68
2021/09/29 04:52:05;;;;;;;;;;;;;;;22.67;52.87;102633.41;2068496;28;808;-67
2021/09/29 04:53:06;;;;;;;;;;;;;;;22.74;51.32;102633.28;2068174;28;911;-68
2021/09/29 04:54:06;;;;;;;;;;;;;;;22.74;51.43;102630.56;2068325;28;1113;-67
2021/09/29 04:55:06;;;;;;;;;;;;;;;22.76;51.89;102625.16;2068059;28;1101;-69
2021/09/29 04:56:06;;;;;;;;;;;;;;;22.75;52.48;102631.47;2067957;28;1018;-68
2021/09/29 04:57:10;;;;;;;;;;;;;;;22.77;51.99;102627.84;2067538;28;776;-69
2021/09/29 04:58:10;;;;;;;;;;;;;;;22.80;51.65;102635.00;2067748;28;789;-68
2021/09/29 04:59:11;;;;;;;;;;;;;;;22.82;51.24;102630.47;2067726;28;1258;-69
2021/09/29 05:00:11;;;;;;;;;;;;;;;22.84;51.65;102625.03;2067618;28;812;-69
2021/09/29 05:01:13;;;;;;;;;;;;;;;22.81;51.46;102623.28;2068014;28;1151;-68
2021/09/29 05:02:13;;;;;;;;;;;;;;;22.83;51.27;102618.75;2068186;28;1064;-69
2021/09/29 05:03:17;;;;;;;;;;;;;;;22.79;51.60;102619.72;2068149;28;851;-68
2021/09/29 05:04:18;;;;;;;;;;;;;;;22.83;52.39;102618.75;2068046;28;1007;-69
2021/09/29 05:05:18;;;;;;;;;;;;;;;22.87;51.52;102623.19;2068164;28;820;-68
2021/09/29 05:06:18;;;;;;;;;;;;;;;22.86;51.14;102609.69;2068276;28;765;-68
2021/09/29 05:07:20;;;;;;;;;;;;;;;22.89;51.66;102618.66;2068016;28;781;-68
2021/09/29 05:08:23;;;;;;;;;;;;;;;22.90;51.19;102622.25;2068113;28;848;-68
2021/09/29 05:09:23;;;;;;;;;;;;;;;22.89;51.17;102617.75;2067819;28;1142;-69
2021/09/29 05:10:29;;;;;;;;;;;;;;;22.94;51.33;102618.59;2068022;28;817;-68
2021/09/29 05:11:40;;;;;;;;;;;;;;;22.91;51.35;102622.25;2068091;28;801;-69
2021/09/29 05:12:41;;;;;;;;;;;;;;;22.92;50.93;102617.72;2067938;28;789;-69
2021/09/29 05:13:41;;;;;;;;;;;;;;;22.90;51.45;102620.47;2068116;28;994;-68
2021/09/29 05:14:41;;;;;;;;;;;;;;;22.87;51.16;102623.19;2067901;28;768;-69
2021/09/29 05:15:41;;;;;;;;;;;;;;;22.91;51.00;102622.25;2068140;28;757;-68
2021/09/29 05:16:41;;;;;;;;;;;;;;;22.89;50.78;102618.66;2067988;28;1033;-69
2021/09/29 05:17:42;;;;;;;;;;;;;;;22.92;50.96;102620.41;2068077;28;978;-68
2021/09/29 05:18:42;;;;;;;;;;;;;;;22.95;50.47;102615.88;2068003;28;1378;-68
2021/09/29 05:19:42;;;;;;;;;;;;;;;22.92;51.70;102618.63;2067922;28;1046;-69
2021/09/29 05:20:42;;;;;;;;;;;;;;;22.91;51.34;102614.13;2068008;28;769;-68
2021/09/29 05:21:42;;;;;;;;;;;;;;;22.94;50.92;102621.28;2068043;28;1105;-69